Airport View

Enter AWOS ICAO identifier for current METAR.

ex. KFNL

KELO 191857Z AUTO 00000KT 10SM SCT070 BKN095 21/04 A2985 RMK AO2

19 Jun 2019 19:10

Frequency: 132.025

Phone: 218-365-3814

Other Area AWOS: KCQM - KEVM - KCDD - KBFW

TAF KHIB 191733Z 1918/2018 VRB04KT P6SM VCSH SCT060 FM192000 13006KT P6SM VCSH BKN060 FM192300 14004KT P6SM SCT100 FM201000 VRB04KT 3SM BR FEW100 FM201300 13007KT P6SM FEW100